CNF4 weather

Kawartha Lakes (Lindsay) Airport
Lindsay, Ontario, Canada

Public forecast

Using degrees Celsius for public forecast. Weather courtesy of forecast.io.

Closest aviation weather report (METAR) to Kawartha Lakes (Lindsay) Airport

Closest report is Peterborough Airport, 19.8 nm (36.7 km) ESE. Retrieved 2019/10/17 03:00 UTC (59 minutes ago):

CYPQ 170300Z AUTO 00000KT 9SM BKN045 OVC065 08/07 A2944 RMK SLP974

Closest aviation forecast (TAF) to Kawartha Lakes (Lindsay) Airport

Forecast is more than 6 hours old.

Closest forecast is Peterborough Airport, 19.8 nm (36.7 km) ESE. Retrieved 2019/10/16 20:00 UTC (8 hours ago):

TAF CYPQ 161938Z 1620/1702 22010KT 6SM -RA BR BKN015 OVC060 TEMPO 1620/1623 P6SM NSW SCT015 OVC060 FM162300 24007KT P6SM BKN040 TEMPO 1700/1702 4SM -DZ BR BKN015 BECMG 1700/1702 VRB03KT RMK FCST BASED ON AUTO OBS NXT FCST WILL BE ISSUED AT 170945Z